Weather at Possum Grape Exit

Public forecast

Using degrees Fahrenheit for public forecast. Weather courtesy of forecast.io.

Closest aviation weather report (METAR) to Possum Grape Exit

Closest report is Newport Regional Airport, 15.3 nm (28.3 km) NE. Retrieved UTC (0 seconds ago):

Closest aviation forecast (TAF) to Possum Grape Exit

Closest forecast is Jonesboro Municipal Airport, 43.0 nm (79.6 km) ENE. Retrieved 2020/09/22 12:22 UTC (2 hours ago):

TAF KJBR 221120Z 2212/2312 12003KT P6SM BKN100 FM221800 10006KT P6SM VCSH BKN100 FM230000 VRB03KT P6SM VCSH OVC100 FM230400 VRB03KT P6SM -SHRA OVC050